createdAt,value
2022-11-10T00:00:47.022Z,8.80
2022-11-10T00:03:15.661Z,8.80
2022-11-10T00:05:44.021Z,8.70
2022-11-10T00:08:13.499Z,8.70
2022-11-10T00:10:58.941Z,8.70
2022-11-10T00:13:29.340Z,8.70
2022-11-10T00:16:17.964Z,8.70
2022-11-10T00:18:46.768Z,8.70
2022-11-10T00:21:16.748Z,8.70
2022-11-10T00:23:47.805Z,8.70
2022-11-10T00:26:19.187Z,8.70
2022-11-10T00:28:47.829Z,8.60
2022-11-10T00:31:16.089Z,8.60
2022-11-10T00:33:45.521Z,8.60
2022-11-10T00:36:13.824Z,8.60
2022-11-10T00:38:42.066Z,8.50
2022-11-10T00:41:10.472Z,8.50
2022-11-10T00:43:40.182Z,8.50
2022-11-10T00:46:08.363Z,8.50
2022-11-10T00:48:36.572Z,8.50
2022-11-10T00:51:05.385Z,8.50
2022-11-10T00:53:33.939Z,8.60
2022-11-10T00:56:02.057Z,8.60
2022-11-10T00:58:30.177Z,8.60
2022-11-10T01:01:04.458Z,8.60
2022-11-10T01:03:33.176Z,8.50
2022-11-10T01:06:06.222Z,8.60
2022-11-10T01:08:34.470Z,8.70
2022-11-10T01:11:03.736Z,8.80
2022-11-10T01:13:32.506Z,8.90
2022-11-10T01:16:06.859Z,8.90
2022-11-10T01:18:35.511Z,9.00
2022-11-10T01:21:03.718Z,9.00
2022-11-10T01:23:31.977Z,9.10
2022-11-10T01:26:00.919Z,9.10
2022-11-10T01:28:29.264Z,9.10
2022-11-10T01:31:00.703Z,9.10
2022-11-10T01:33:30.458Z,9.10
2022-11-10T01:35:59.055Z,9.20
2022-11-10T01:38:29.488Z,9.20
2022-11-10T01:40:58.270Z,9.10
2022-11-10T01:43:27.478Z,9.10
2022-11-10T01:45:56.991Z,9.10
2022-11-10T01:48:33.694Z,9.10
2022-11-10T01:51:06.575Z,9.10
2022-11-10T01:53:37.896Z,9.10
2022-11-10T01:56:08.596Z,9.10
2022-11-10T01:58:41.420Z,9.20
2022-11-10T02:01:10.543Z,9.10
2022-11-10T02:03:45.932Z,9.10
2022-11-10T02:06:15.106Z,9.20
2022-11-10T02:08:44.102Z,9.20
2022-11-10T02:11:12.879Z,9.20
2022-11-10T02:13:41.614Z,9.20
2022-11-10T02:16:11.736Z,9.20
2022-11-10T02:18:42.144Z,9.20
2022-11-10T02:21:11.890Z,9.20
2022-11-10T02:23:50.789Z,9.20
2022-11-10T02:26:23.196Z,9.20
2022-11-10T02:28:51.758Z,9.20
2022-11-10T02:31:20.093Z,9.20
2022-11-10T02:33:48.445Z,9.10
2022-11-10T02:36:17.887Z,9.10
2022-11-10T02:38:45.996Z,9.10
2022-11-10T02:41:14.156Z,9.00
2022-11-10T02:43:42.372Z,9.00
2022-11-10T02:46:10.469Z,9.00
2022-11-10T02:48:38.532Z,9.00
2022-11-10T02:51:06.799Z,8.90
2022-11-10T02:53:36.277Z,8.90
2022-11-10T02:56:04.512Z,8.90
2022-11-10T02:58:35.517Z,8.90
2022-11-10T03:01:06.976Z,8.80
2022-11-10T03:03:35.421Z,8.90
2022-11-10T03:06:03.564Z,8.80
2022-11-10T03:08:31.639Z,8.80
2022-11-10T03:11:01.078Z,8.70
2022-11-10T03:13:45.365Z,8.70
2022-11-10T03:16:20.099Z,8.60
2022-11-10T03:18:48.220Z,8.60
2022-11-10T03:21:16.315Z,8.60
2022-11-10T03:23:44.396Z,8.50
2022-11-10T03:26:14.420Z,8.50
2022-11-10T03:28:42.498Z,8.50
2022-11-10T03:31:10.597Z,8.40
2022-11-10T03:33:38.646Z,8.40
2022-11-10T03:36:07.049Z,8.40
2022-11-10T03:38:35.087Z,8.40
2022-11-10T03:41:20.168Z,8.40
2022-11-10T03:43:50.605Z,8.40
2022-11-10T03:46:19.207Z,8.50
2022-11-10T03:48:52.864Z,8.50
2022-11-10T03:51:22.297Z,8.60
2022-11-10T03:53:50.394Z,8.60
2022-11-10T03:56:18.744Z,8.50
2022-11-10T03:58:46.855Z,8.50
2022-11-10T04:01:16.517Z,8.50
2022-11-10T04:03:50.173Z,8.50
2022-11-10T04:06:37.392Z,8.40
2022-11-10T04:09:06.737Z,8.50
2022-11-10T04:11:52.099Z,8.40
2022-11-10T04:14:37.585Z,8.40
2022-11-10T04:17:07.090Z,8.50
2022-11-10T04:19:35.152Z,8.40
2022-11-10T04:22:03.253Z,8.30
2022-11-10T04:24:31.294Z,8.30
2022-11-10T04:26:59.377Z,8.30
2022-11-10T04:29:27.409Z,8.20
2022-11-10T04:31:55.525Z,8.10
2022-11-10T04:34:24.973Z,8.00
2022-11-10T04:36:53.049Z,8.00
2022-11-10T04:39:21.144Z,7.90
2022-11-10T04:41:49.160Z,7.70
2022-11-10T04:44:17.255Z,7.70
2022-11-10T04:46:45.533Z,7.70
2022-11-10T04:49:13.673Z,7.70
2022-11-10T04:51:43.098Z,7.60
2022-11-10T04:54:12.802Z,7.70
2022-11-10T04:56:41.365Z,7.70
2022-11-10T04:59:09.847Z,7.60
2022-11-10T05:01:37.880Z,7.70
2022-11-10T05:04:06.684Z,7.60
2022-11-10T05:06:34.779Z,7.60
2022-11-10T05:09:04.391Z,7.60
2022-11-10T05:11:32.479Z,7.50
2022-11-10T05:14:00.596Z,7.50
2022-11-10T05:16:28.671Z,7.50
2022-11-10T05:18:58.324Z,7.50
2022-11-10T05:21:26.502Z,7.50
2022-11-10T05:23:54.562Z,7.50
2022-11-10T05:26:23.995Z,7.50
2022-11-10T05:28:52.129Z,7.50
2022-11-10T05:31:20.214Z,7.50
2022-11-10T05:33:48.283Z,7.50
2022-11-10T05:36:16.336Z,7.50
2022-11-10T05:38:44.417Z,7.60
2022-11-10T05:41:12.994Z,7.60
2022-11-10T05:43:42.453Z,7.60
2022-11-10T05:46:10.530Z,7.60
2022-11-10T05:48:38.589Z,7.60
2022-11-10T05:51:07.097Z,7.60
2022-11-10T05:53:35.248Z,7.60
2022-11-10T05:56:03.337Z,7.60
2022-11-10T05:58:31.529Z,7.50
2022-11-10T06:01:00.990Z,7.60
2022-11-10T06:03:29.182Z,7.50
2022-11-10T06:05:57.324Z,7.60
2022-11-10T06:08:25.384Z,7.60
2022-11-10T06:10:53.812Z,7.60
2022-11-10T06:13:22.145Z,7.60
2022-11-10T06:15:50.811Z,7.60
2022-11-10T06:18:20.345Z,7.70
2022-11-10T06:20:48.643Z,7.70
2022-11-10T06:23:17.129Z,7.70
2022-11-10T06:25:45.711Z,7.70
2022-11-10T06:28:14.805Z,7.80
2022-11-10T06:30:43.087Z,7.80
2022-11-10T06:33:11.175Z,7.80
2022-11-10T06:35:40.875Z,7.80
2022-11-10T06:38:11.800Z,7.80
2022-11-10T06:40:40.381Z,7.80
2022-11-10T06:43:08.469Z,7.90
2022-11-10T06:45:36.614Z,7.80
2022-11-10T06:48:06.875Z,7.90
2022-11-10T06:50:35.193Z,7.90
2022-11-10T06:53:04.823Z,8.00
2022-11-10T06:55:33.114Z,8.00
2022-11-10T06:58:01.594Z,8.00
2022-11-10T07:00:31.717Z,8.10
2022-11-10T07:03:03.708Z,8.10
2022-11-10T07:05:34.039Z,8.10
2022-11-10T07:08:08.711Z,8.10
2022-11-10T07:10:37.526Z,8.30
2022-11-10T07:13:06.649Z,8.30
2022-11-10T07:15:34.776Z,8.40
2022-11-10T07:18:03.710Z,8.40
2022-11-10T07:20:32.520Z,8.50
2022-11-10T07:23:01.336Z,8.60
2022-11-10T07:25:33.256Z,8.70
2022-11-10T07:28:03.217Z,8.70
2022-11-10T07:30:33.187Z,8.70
2022-11-10T07:33:02.283Z,8.90
2022-11-10T07:35:31.128Z,8.90
2022-11-10T07:38:02.456Z,8.90
2022-11-10T07:40:32.119Z,9.00
2022-11-10T07:43:00.474Z,9.20
2022-11-10T07:45:29.543Z,9.30
2022-11-10T07:48:00.851Z,9.30
2022-11-10T07:50:29.631Z,9.30
2022-11-10T07:53:04.694Z,9.40
2022-11-10T07:55:34.516Z,9.40
2022-11-10T07:58:02.647Z,9.60
2022-11-10T08:00:31.113Z,9.70
2022-11-10T08:03:03.793Z,9.80
2022-11-10T08:05:32.216Z,9.90
2022-11-10T08:08:01.099Z,10.00
2022-11-10T08:10:29.874Z,10.20
2022-11-10T08:13:00.708Z,10.40
2022-11-10T08:15:30.444Z,10.50
2022-11-10T08:18:02.325Z,10.60
2022-11-10T08:20:31.240Z,10.60
2022-11-10T08:23:00.754Z,10.80
2022-11-10T08:25:34.554Z,11.00
2022-11-10T08:28:07.293Z,11.20
2022-11-10T08:30:36.148Z,11.60
2022-11-10T08:33:06.096Z,11.60
2022-11-10T08:35:38.262Z,11.70
2022-11-10T08:38:10.761Z,11.60
2022-11-10T08:40:39.501Z,11.70
2022-11-10T08:43:10.041Z,11.70
2022-11-10T08:45:38.842Z,11.60
2022-11-10T08:48:09.134Z,11.70
2022-11-10T08:50:37.591Z,11.60
2022-11-10T08:53:07.075Z,11.60
2022-11-10T08:55:35.529Z,11.70
2022-11-10T08:58:05.222Z,12.00
2022-11-10T09:00:34.857Z,12.10
2022-11-10T09:03:07.999Z,12.10
2022-11-10T09:05:37.031Z,12.30
2022-11-10T09:08:06.201Z,12.30
2022-11-10T09:10:35.496Z,12.60
2022-11-10T09:13:04.536Z,12.40
2022-11-10T09:15:35.646Z,12.40
2022-11-10T09:18:05.758Z,12.50
2022-11-10T09:20:35.902Z,12.50
2022-11-10T09:23:08.163Z,12.60
2022-11-10T09:25:36.650Z,12.80
2022-11-10T09:28:04.846Z,12.70
2022-11-10T09:30:34.397Z,12.80
2022-11-10T09:33:02.464Z,12.70
2022-11-10T09:35:30.623Z,12.70
2022-11-10T09:37:58.792Z,13.00
2022-11-10T09:40:34.184Z,13.00
2022-11-10T09:43:04.877Z,13.00
2022-11-10T09:45:39.602Z,13.10
2022-11-10T09:48:16.111Z,13.30
2022-11-10T09:50:48.670Z,13.40
2022-11-10T09:53:20.729Z,13.40
2022-11-10T09:55:52.403Z,13.80
2022-11-10T09:58:24.510Z,13.70
2022-11-10T10:01:09.193Z,13.90
2022-11-10T10:03:41.722Z,14.10
2022-11-10T10:06:13.727Z,14.10
2022-11-10T10:08:56.803Z,14.20
2022-11-10T10:11:37.820Z,14.20
2022-11-10T10:14:18.840Z,14.50
2022-11-10T10:16:55.294Z,14.50
2022-11-10T10:19:30.392Z,14.50
2022-11-10T10:22:34.720Z,14.40
2022-11-10T10:25:11.388Z,14.40
2022-11-10T10:27:41.882Z,14.10
2022-11-10T10:30:15.207Z,14.20
2022-11-10T10:32:44.820Z,14.10
2022-11-10T10:35:17.424Z,14.30
2022-11-10T10:37:48.681Z,14.10
2022-11-10T10:40:19.240Z,14.10
2022-11-10T10:42:47.832Z,14.50
2022-11-10T10:45:18.909Z,14.50
2022-11-10T10:47:50.543Z,14.50
2022-11-10T10:50:28.244Z,14.60
2022-11-10T10:53:13.790Z,15.00
2022-11-10T10:55:48.018Z,15.10
2022-11-10T10:58:28.081Z,15.00
2022-11-10T11:01:02.314Z,14.80
2022-11-10T11:03:40.580Z,14.30
2022-11-10T11:06:20.577Z,14.30
2022-11-10T11:08:59.731Z,13.90
2022-11-10T11:11:30.692Z,13.90
2022-11-10T11:14:23.432Z,14.20
2022-11-10T11:16:53.622Z,14.50
2022-11-10T11:19:27.481Z,14.90
2022-11-10T11:22:06.282Z,15.00
2022-11-10T11:24:44.382Z,14.90
2022-11-10T11:27:19.811Z,15.10
2022-11-10T11:30:05.818Z,15.30
2022-11-10T11:33:10.329Z,15.30
2022-11-10T11:35:47.533Z,15.50
2022-11-10T11:38:17.415Z,15.70
2022-11-10T11:40:50.633Z,15.90
2022-11-10T11:43:40.726Z,15.80
2022-11-10T11:46:18.928Z,15.90
2022-11-10T11:48:59.293Z,15.80
2022-11-10T11:51:36.724Z,15.90
2022-11-10T11:54:27.765Z,16.30
2022-11-10T11:57:01.066Z,16.60
2022-11-10T11:59:47.020Z,16.60
2022-11-10T12:02:38.571Z,16.60
2022-11-10T12:05:18.327Z,16.80
2022-11-10T12:07:55.356Z,17.10
2022-11-10T12:10:39.246Z,17.10
2022-11-10T12:13:39.863Z,17.10
2022-11-10T12:16:16.797Z,16.60
2022-11-10T12:18:51.050Z,16.60
2022-11-10T12:21:30.613Z,16.20
2022-11-10T12:24:16.739Z,16.20
2022-11-10T12:26:51.299Z,15.90
2022-11-10T12:29:28.942Z,15.50
2022-11-10T12:32:03.529Z,15.20
2022-11-10T12:34:37.655Z,15.10
2022-11-10T12:37:09.217Z,15.40
2022-11-10T12:39:49.192Z,15.40
2022-11-10T12:42:22.181Z,15.40
2022-11-10T12:45:00.575Z,15.60
2022-11-10T12:47:32.972Z,15.20
2022-11-10T12:50:20.221Z,14.70
2022-11-10T12:52:54.501Z,14.20
2022-11-10T12:55:32.936Z,13.80
2022-11-10T12:58:02.092Z,13.90
2022-11-10T13:00:32.504Z,13.60
2022-11-10T13:03:01.180Z,13.40
2022-11-10T13:05:34.029Z,13.20
2022-11-10T13:08:16.663Z,13.10
2022-11-10T13:10:56.108Z,13.20
2022-11-10T13:13:25.277Z,13.20
2022-11-10T13:15:56.397Z,13.30
2022-11-10T13:18:58.979Z,13.60
2022-11-10T13:22:00.622Z,14.20
2022-11-10T13:24:30.507Z,15.00
2022-11-10T13:27:01.360Z,15.60
2022-11-10T13:29:36.197Z,15.70
2022-11-10T13:32:32.339Z,15.30
2022-11-10T13:35:45.895Z,14.50
2022-11-10T13:38:34.404Z,14.20
2022-11-10T13:41:19.418Z,13.80
2022-11-10T13:43:53.427Z,13.70
2022-11-10T13:46:32.332Z,13.70
2022-11-10T13:49:34.805Z,13.70
2022-11-10T13:52:10.970Z,13.70
2022-11-10T13:54:55.527Z,14.10
2022-11-10T13:57:30.232Z,14.50
2022-11-10T14:00:01.823Z,14.80
2022-11-10T14:02:56.042Z,15.20
2022-11-10T14:06:00.752Z,15.30
2022-11-10T14:08:32.707Z,15.70
2022-11-10T14:11:03.608Z,16.30
2022-11-10T14:13:37.222Z,16.60
2022-11-10T14:16:16.677Z,16.60
2022-11-10T14:18:53.346Z,16.80
2022-11-10T14:21:30.439Z,17.00
2022-11-10T14:24:05.758Z,16.90
2022-11-10T14:26:37.918Z,17.00
2022-11-10T14:29:30.292Z,17.40
2022-11-10T14:32:02.225Z,17.40
2022-11-10T14:34:31.350Z,17.50
2022-11-10T14:37:02.482Z,17.70
2022-11-10T14:39:33.930Z,17.70
2022-11-10T14:42:04.931Z,18.10
2022-11-10T14:44:34.714Z,18.50
2022-11-10T14:47:25.418Z,18.80
2022-11-10T14:50:12.827Z,18.80
2022-11-10T14:52:42.769Z,18.60
2022-11-10T14:55:17.561Z,18.30
2022-11-10T14:57:50.212Z,18.00
2022-11-10T15:00:25.141Z,17.60
2022-11-10T15:02:56.867Z,16.90
2022-11-10T15:05:25.647Z,16.50
2022-11-10T15:07:55.958Z,16.20
2022-11-10T15:10:26.136Z,16.40
2022-11-10T15:13:02.188Z,16.30
2022-11-10T15:15:30.453Z,16.20
2022-11-10T15:17:59.923Z,15.70
2022-11-10T15:20:42.297Z,15.00
2022-11-10T15:23:22.114Z,14.60
2022-11-10T15:25:53.282Z,14.20
2022-11-10T15:28:31.016Z,14.30
2022-11-10T15:31:01.013Z,14.10
2022-11-10T15:33:34.827Z,13.90
2022-11-10T15:36:18.413Z,13.40
2022-11-10T15:39:02.798Z,13.30
2022-11-10T15:41:33.757Z,12.80
2022-11-10T15:44:17.902Z,12.40
2022-11-10T15:46:46.536Z,12.20
2022-11-10T15:49:23.698Z,11.90
2022-11-10T15:51:52.764Z,11.70
2022-11-10T15:54:23.770Z,11.50
2022-11-10T15:56:51.811Z,11.40
2022-11-10T15:59:19.949Z,11.30
2022-11-10T16:01:48.157Z,11.10
2022-11-10T16:04:17.632Z,10.90
2022-11-10T16:06:47.114Z,10.80
2022-11-10T16:09:15.448Z,10.70
2022-11-10T16:11:45.716Z,10.60
2022-11-10T16:14:17.343Z,10.70
2022-11-10T16:16:45.892Z,10.60
2022-11-10T16:19:14.366Z,10.60
2022-11-10T16:21:43.813Z,10.50
2022-11-10T16:24:11.893Z,10.50
2022-11-10T16:26:39.981Z,10.40
2022-11-10T16:29:12.424Z,10.30
2022-11-10T16:31:40.516Z,10.30
2022-11-10T16:34:13.466Z,10.10
2022-11-10T16:36:46.025Z,10.20
2022-11-10T16:39:16.810Z,10.20
2022-11-10T16:41:45.113Z,10.10
2022-11-10T16:44:13.961Z,10.10
2022-11-10T16:46:44.068Z,10.10
2022-11-10T16:49:24.329Z,10.10
2022-11-10T16:51:53.970Z,10.00
2022-11-10T16:54:22.129Z,9.80
2022-11-10T16:56:50.227Z,9.70
2022-11-10T16:59:18.301Z,9.70
2022-11-10T17:01:47.734Z,9.80
2022-11-10T17:04:16.188Z,9.80
2022-11-10T17:06:44.404Z,9.80
2022-11-10T17:09:18.405Z,9.90
2022-11-10T17:11:46.497Z,9.80
2022-11-10T17:14:15.174Z,9.80
2022-11-10T17:16:45.295Z,9.70
2022-11-10T17:19:18.837Z,9.60
2022-11-10T17:21:48.591Z,9.50
2022-11-10T17:24:18.851Z,9.40
2022-11-10T17:26:47.284Z,9.30
2022-11-10T17:29:18.788Z,9.30
2022-11-10T17:31:47.153Z,9.30
2022-11-10T17:34:15.246Z,9.20
2022-11-10T17:36:43.468Z,9.10
2022-11-10T17:39:14.978Z,9.10
2022-11-10T17:41:44.464Z,9.00
2022-11-10T17:44:15.146Z,9.00
2022-11-10T17:46:43.485Z,9.00
2022-11-10T17:49:11.700Z,9.00
2022-11-10T17:51:40.663Z,9.00
2022-11-10T17:54:14.248Z,9.10
2022-11-10T17:56:43.840Z,9.00
2022-11-10T17:59:11.962Z,9.10
2022-11-10T18:01:40.138Z,9.00
2022-11-10T18:04:09.650Z,9.00
2022-11-10T18:06:37.756Z,9.00
2022-11-10T18:09:06.001Z,8.90
2022-11-10T18:11:34.115Z,8.90
2022-11-10T18:14:03.593Z,8.80
2022-11-10T18:16:31.648Z,8.80
2022-11-10T18:18:59.890Z,8.80
2022-11-10T18:21:28.079Z,8.70
2022-11-10T18:23:56.149Z,8.70
2022-11-10T18:26:24.265Z,8.70
2022-11-10T18:28:52.361Z,8.70
2022-11-10T18:31:21.805Z,8.60
2022-11-10T18:33:49.939Z,8.60
2022-11-10T18:36:18.000Z,8.60
2022-11-10T18:38:46.817Z,8.60
2022-11-10T18:41:32.273Z,8.50
2022-11-10T18:44:00.343Z,8.60
2022-11-10T18:46:29.765Z,8.50
2022-11-10T18:48:57.865Z,8.50
2022-11-10T18:51:26.128Z,8.60
2022-11-10T18:53:55.044Z,8.50
2022-11-10T18:56:23.091Z,8.40
2022-11-10T18:58:56.758Z,8.40
2022-11-10T19:01:25.488Z,8.40
2022-11-10T19:03:55.042Z,8.40
2022-11-10T19:06:23.095Z,8.30
2022-11-10T19:08:51.860Z,8.30
2022-11-10T19:11:20.875Z,8.20
2022-11-10T19:13:50.107Z,8.20
2022-11-10T19:16:19.653Z,8.10
2022-11-10T19:18:47.817Z,8.10
2022-11-10T19:21:20.034Z,8.00
2022-11-10T19:23:48.744Z,7.90
2022-11-10T19:26:22.428Z,7.80
2022-11-10T19:28:51.038Z,7.80
2022-11-10T19:31:22.621Z,7.80
2022-11-10T19:33:51.793Z,7.80
2022-11-10T19:36:22.981Z,7.90
2022-11-10T19:38:51.427Z,8.00
2022-11-10T19:41:21.616Z,8.10
2022-11-10T19:43:50.042Z,8.30
2022-11-10T19:46:20.612Z,8.50
2022-11-10T19:48:48.683Z,8.60
2022-11-10T19:51:22.769Z,8.70
2022-11-10T19:53:56.344Z,8.60
2022-11-10T19:56:27.729Z,8.50
2022-11-10T19:59:00.161Z,8.20
2022-11-10T20:01:28.580Z,7.90
2022-11-10T20:03:56.680Z,7.60
2022-11-10T20:06:26.095Z,7.50
2022-11-10T20:08:54.192Z,7.50
2022-11-10T20:11:24.060Z,7.50
2022-11-10T20:13:55.237Z,7.50
2022-11-10T20:16:23.581Z,7.50
2022-11-10T20:18:51.998Z,7.50
2022-11-10T20:21:23.657Z,7.40
2022-11-10T20:23:57.475Z,7.40
2022-11-10T20:26:26.384Z,7.40
2022-11-10T20:28:54.531Z,7.40
2022-11-10T20:31:25.962Z,7.30
2022-11-10T20:33:56.370Z,7.30
2022-11-10T20:36:26.833Z,7.30
2022-11-10T20:38:58.104Z,7.40
2022-11-10T20:41:28.491Z,7.30
2022-11-10T20:43:56.750Z,7.30
2022-11-10T20:46:52.780Z,7.30
2022-11-10T20:49:13.331Z,7.30
2022-11-10T20:51:42.513Z,7.30
2022-11-10T20:54:15.072Z,7.20
2022-11-10T20:56:43.153Z,7.20
2022-11-10T20:59:11.292Z,7.20
2022-11-10T21:01:39.505Z,7.10
2022-11-10T21:04:07.625Z,7.10
2022-11-10T21:06:35.729Z,7.10
2022-11-10T21:09:03.882Z,7.20
2022-11-10T21:11:50.704Z,7.20
2022-11-10T21:14:18.932Z,7.10
2022-11-10T21:16:47.131Z,7.10
2022-11-10T21:19:15.208Z,7.10
2022-11-10T21:21:43.299Z,7.10
2022-11-10T21:24:12.101Z,7.20
2022-11-10T21:26:41.554Z,7.20
2022-11-10T21:29:09.768Z,7.20
2022-11-10T21:31:37.981Z,7.30
2022-11-10T21:34:06.450Z,7.40
2022-11-10T21:36:34.649Z,7.40
2022-11-10T21:39:02.840Z,7.50
2022-11-10T21:41:30.930Z,7.60
2022-11-10T21:44:00.499Z,7.50
2022-11-10T21:46:28.648Z,7.50
2022-11-10T21:48:56.858Z,7.50
2022-11-10T21:51:25.311Z,7.50
2022-11-10T21:53:53.397Z,7.50
2022-11-10T21:56:21.472Z,7.60
2022-11-10T21:58:49.510Z,7.60
2022-11-10T22:01:20.606Z,7.80
2022-11-10T22:03:48.822Z,7.70
2022-11-10T22:06:18.705Z,7.70
2022-11-10T22:08:48.477Z,7.60
2022-11-10T22:11:35.788Z,7.50
2022-11-10T22:14:29.907Z,7.50
2022-11-10T22:17:17.859Z,7.50
2022-11-10T22:19:46.088Z,7.50
2022-11-10T22:22:15.254Z,7.50
2022-11-10T22:24:43.287Z,7.60
2022-11-10T22:27:11.458Z,7.60
2022-11-10T22:29:39.548Z,7.40
2022-11-10T22:32:09.032Z,7.20
2022-11-10T22:34:37.112Z,7.10
2022-11-10T22:37:05.604Z,7.10
2022-11-10T22:39:48.198Z,7.00
2022-11-10T22:42:33.605Z,7.20
2022-11-10T22:45:01.706Z,7.30
2022-11-10T22:47:51.181Z,7.20
2022-11-10T22:50:19.358Z,7.00
2022-11-10T22:52:47.445Z,6.90
2022-11-10T22:55:15.754Z,6.90
2022-11-10T22:57:43.881Z,6.80
2022-11-10T23:00:13.481Z,6.80
2022-11-10T23:02:42.920Z,6.70
2022-11-10T23:05:11.172Z,6.60
2022-11-10T23:07:39.294Z,6.60
2022-11-10T23:10:08.506Z,6.70
2022-11-10T23:12:36.623Z,6.70
2022-11-10T23:15:05.000Z,6.70
2022-11-10T23:17:33.987Z,6.70
2022-11-10T23:20:03.507Z,6.70
2022-11-10T23:22:32.296Z,6.70
2022-11-10T23:25:00.774Z,6.70
2022-11-10T23:27:29.024Z,6.80
2022-11-10T23:29:57.086Z,6.80
2022-11-10T23:32:25.232Z,6.80
2022-11-10T23:34:53.285Z,6.90
2022-11-10T23:37:22.787Z,6.80
2022-11-10T23:39:50.845Z,6.70
2022-11-10T23:42:18.909Z,6.60
2022-11-10T23:44:46.989Z,6.60
2022-11-10T23:47:15.067Z,6.50
2022-11-10T23:49:43.129Z,6.50
2022-11-10T23:52:11.219Z,6.50
2022-11-10T23:54:40.763Z,6.50
2022-11-10T23:57:08.819Z,6.50
2022-11-10T23:59:36.896Z,6.70
